Time;durP1;ratioP1;P1;durP2;ratioP2;P2;SDS_P1;SDS_P2;PMS_P1;PMS_P2;Temp;Humidity;BMP_temperature;BMP_pressure;BME280_temperature;BME280_humidity;BME280_pressure;Samples;Min_cycle;Max_cycle;Signal;HPM_P1;HPM_P2
2022/10/01 00:01:16;;;;;;;3.87;1.90;;;;;;;11.15;88.08;95704.59;1751026;82;21105;-67
2022/10/01 00:03:49;;;;;;;2.77;1.85;;;;;;;11.08;88.07;95713.07;1751085;82;20959;-68
2022/10/01 00:06:19;;;;;;;4.25;1.67;;;;;;;11.09;88.17;95707.34;1750958;82;20967;-67
2022/10/01 00:08:48;;;;;;;7.90;2.15;;;;;;;11.10;87.80;95711.28;1751072;82;21010;-68
2022/10/01 00:11:22;;;;;;;6.75;1.80;;;;;;;11.06;88.21;95704.30;1751042;82;21016;-67
2022/10/01 00:13:50;;;;;;;5.50;1.98;;;;;;;11.05;87.86;95711.36;1750928;82;21019;-68
2022/10/01 00:16:21;;;;;;;3.60;2.00;;;;;;;11.04;88.20;95713.59;1750750;82;21031;-68
2022/10/01 00:18:49;;;;;;;4.42;1.20;;;;;;;11.11;88.50;95706.41;1750958;82;21031;-68
2022/10/01 00:21:30;;;;;;;5.28;1.47;;;;;;;11.07;87.70;95715.30;1751142;82;21477;-67
2022/10/01 00:24:01;;;;;;;7.65;1.35;;;;;;;11.08;88.22;95705.61;1751080;82;21461;-68
2022/10/01 00:26:33;;;;;;;1.20;1.00;;;;;;;11.07;88.58;95702.10;1750921;82;20979;-68
2022/10/01 00:29:11;;;;;;;3.45;1.10;;;;;;;11.04;87.90;95706.12;1751164;82;21002;-68
2022/10/01 00:31:38;;;;;;;4.45;1.20;;;;;;;11.05;88.20;95702.12;1750802;82;21590;-68
2022/10/01 00:34:05;;;;;;;3.25;2.00;;;;;;;11.07;88.21;95700.78;1750750;82;21015;-68
2022/10/01 00:36:33;;;;;;;4.17;1.47;;;;;;;11.02;87.71;95695.58;1751117;82;21014;-68
2022/10/01 00:39:00;;;;;;;3.12;0.90;;;;;;;10.97;87.80;95695.25;1751054;82;21037;-68
2022/10/01 00:41:31;;;;;;;5.05;1.10;;;;;;;10.95;87.36;95697.91;1750767;82;21070;-68
2022/10/01 00:44:01;;;;;;;4.25;0.80;;;;;;;10.91;87.86;95691.39;1750953;82;21035;-68
2022/10/01 00:46:36;;;;;;;6.30;1.20;;;;;;;10.97;87.99;95697.44;1751029;82;21031;-67
2022/10/01 00:49:14;;;;;;;4.05;1.35;;;;;;;10.99;88.16;95694.33;1749078;82;21552;-68
2022/10/01 00:51:49;;;;;;;3.92;1.30;;;;;;;10.94;87.42;95692.22;1750714;82;21541;-68
2022/10/01 00:54:42;;;;;;;2.80;1.35;;;;;;;11.02;88.28;95686.80;1751109;82;21006;-68
2022/10/01 00:57:13;;;;;;;4.10;1.90;;;;;;;11.05;87.92;95692.02;1725824;83;21057;-68
2022/10/01 00:59:40;;;;;;;4.72;1.75;;;;;;;11.03;87.93;95686.75;1744467;82;21022;-67
2022/10/01 01:02:06;;;;;;;8.38;1.98;;;;;;;10.97;87.03;95687.33;1750711;82;21054;-68
2022/10/01 01:04:33;;;;;;;5.30;1.55;;;;;;;10.95;87.80;95692.63;1751269;82;21002;-68
2022/10/01 01:07:02;;;;;;;7.30;1.50;;;;;;;10.92;87.28;95687.87;1751292;82;21011;-68
2022/10/01 01:09:33;;;;;;;3.60;1.30;;;;;;;10.92;87.65;95685.23;1750954;82;21051;-68
2022/10/01 01:12:43;;;;;;;3.47;1.05;;;;;;;10.97;87.77;95690.84;1751075;82;21022;-68
2022/10/01 01:15:37;;;;;;;5.22;1.30;;;;;;;11.00;87.63;95684.63;1750707;82;20999;-68
2022/10/01 01:18:18;;;;;;;3.52;1.40;;;;;;;11.01;87.86;95698.23;1751263;82;21473;-68
2022/10/01 01:20:56;;;;;;;5.70;1.57;;;;;;;11.03;87.57;95697.77;1750996;82;21548;-68
2022/10/01 01:23:41;;;;;;;5.80;1.70;;;;;;;10.98;87.50;95693.02;1749702;82;21603;-67
2022/10/01 01:26:27;;;;;;;3.25;1.82;;;;;;;10.95;87.61;95695.73;1697563;82;20991;-67
2022/10/01 01:29:17;;;;;;;6.35;1.98;;;;;;;10.92;87.21;95683.45;1751132;82;21014;-68
2022/10/01 01:31:45;;;;;;;4.37;1.70;;;;;;;10.90;87.40;95696.26;1750836;82;21079;-68
2022/10/01 01:34:19;;;;;;;7.55;1.60;;;;;;;10.93;87.92;95677.72;1750990;82;21007;-68
2022/10/01 01:36:53;;;;;;;4.85;2.67;;;;;;;10.90;87.81;95686.56;1750949;82;21556;-68
2022/10/01 01:39:22;;;;;;;3.02;2.30;;;;;;;10.88;87.43;95676.93;1751209;82;21011;-68
2022/10/01 01:41:54;;;;;;;4.72;2.08;;;;;;;10.85;87.85;95675.67;1751158;82;21580;-68
2022/10/01 01:44:25;;;;;;;7.05;3.55;;;;;;;10.83;87.41;95677.91;1750834;82;21068;-68
2022/10/01 01:46:55;;;;;;;15.75;7.40;;;;;;;10.82;87.46;95677.47;1751091;82;21065;-68
2022/10/01 01:49:23;;;;;;;11.68;7.08;;;;;;;10.74;88.03;95674.11;1750578;82;21082;-68
2022/10/01 01:52:12;;;;;;;7.83;4.00;;;;;;;10.75;87.90;95677.16;1750893;82;21063;-68
2022/10/01 01:54:41;;;;;;;11.68;4.78;;;;;;;10.66;88.09;95672.48;1750922;82;21038;-68
2022/10/01 01:57:09;;;;;;;9.70;5.25;;;;;;;10.68;88.64;95662.32;1750954;82;21026;-68
2022/10/01 01:59:36;;;;;;;9.90;4.42;;;;;;;10.70;88.56;95657.89;1750910;82;21049;-68
2022/10/01 02:02:05;;;;;;;11.20;3.47;;;;;;;10.63;88.41;95657.58;1750808;82;21114;-68
2022/10/01 02:04:40;;;;;;;4.25;1.80;;;;;;;10.55;87.89;95660.80;1750792;82;21015;-68
2022/10/01 02:07:15;;;;;;;2.47;1.50;;;;;;;10.52;88.27;95661.73;1730118;82;20995;-68
2022/10/01 02:09:53;;;;;;;1.40;1.30;;;;;;;10.51;88.38;95657.36;1749676;82;21556;-68
2022/10/01 02:12:44;;;;;;;9.08;3.95;;;;;;;10.50;88.67;95653.42;1750840;82;21034;-68
2022/10/01 02:15:42;;;;;;;5.40;2.90;;;;;;;10.48;88.96;95660.48;1751231;82;21031;-68
2022/10/01 02:18:35;;;;;;;8.40;3.90;;;;;;;10.36;89.30;95666.41;1750919;82;21086;-68
2022/10/01 02:21:23;;;;;;;5.72;3.58;;;;;;;10.31;88.92;95678.80;1750971;82;21042;-68
2022/10/01 02:23:56;;;;;;;10.70;4.20;;;;;;;10.32;89.12;95674.39;1751194;82;21081;-68
2022/10/01 02:26:26;;;;;;;10.13;2.70;;;;;;;10.31;88.74;95687.16;1751174;82;21053;-68
2022/10/01 02:28:58;;;;;;;4.65;1.60;;;;;;;10.31;89.10;95685.39;1751223;82;21031;-68
2022/10/01 02:31:28;;;;;;;6.42;1.95;;;;;;;10.35;88.95;95680.92;1751421;82;21002;-68
2022/10/01 02:33:58;;;;;;;5.20;1.80;;;;;;;10.37;89.33;95678.68;1751141;82;21523;-68
2022/10/01 02:36:26;;;;;;;5.37;1.50;;;;;;;10.40;89.25;95685.67;1751440;82;21010;-67
2022/10/01 02:38:55;;;;;;;9.40;1.65;;;;;;;10.42;89.06;95679.93;1751308;82;21074;-68
2022/10/01 02:41:30;;;;;;;3.77;1.50;;;;;;;10.45;89.35;95685.15;1751235;82;21026;-67
2022/10/01 02:44:10;;;;;;;3.75;1.40;;;;;;;10.51;89.08;95681.11;1751165;82;20983;-68
2022/10/01 02:46:43;;;;;;;5.78;1.55;;;;;;;10.57;89.41;95684.08;1751259;82;20986;-68
2022/10/01 02:49:12;;;;;;;4.58;1.57;;;;;;;10.52;88.68;95681.52;1751351;82;21529;-68
2022/10/01 02:51:50;;;;;;;5.33;1.75;;;;;;;10.53;88.78;95679.74;1751348;82;21441;-67
2022/10/01 02:54:25;;;;;;;8.83;4.92;;;;;;;10.51;88.60;95678.92;1749716;82;21513;-68
2022/10/01 02:59:38;;;;;;;8.83;3.55;;;;;;;10.57;88.10;95666.94;1751289;82;21027;-68
2022/10/01 03:02:05;;;;;;;6.80;1.90;;;;;;;10.53;88.53;95666.13;1751231;82;20986;-68
2022/10/01 03:04:32;;;;;;;6.95;2.02;;;;;;;10.50;87.89;95665.30;1750939;82;21023;-68
2022/10/01 03:07:02;;;;;;;9.53;3.08;;;;;;;10.52;88.19;95659.09;1751131;82;21042;-68
2022/10/01 03:09:27;;;;;;;4.85;2.20;;;;;;;10.51;87.95;95672.33;1730266;82;21029;-67
2022/10/01 03:11:54;;;;;;;2.00;1.60;;;;;;;10.47;87.65;95664.03;1751110;82;21058;-67
2022/10/01 03:14:20;;;;;;;10.60;2.70;;;;;;;10.40;87.18;95670.71;1751480;82;21022;-67
2022/10/01 03:16:47;;;;;;;10.03;2.62;;;;;;;10.42;88.04;95669.38;1751036;82;20994;-67
2022/10/01 03:19:14;;;;;;;7.75;2.37;;;;;;;10.43;87.63;95659.23;1750789;82;20999;-67
2022/10/01 03:21:41;;;;;;;4.97;1.30;;;;;;;10.39;87.17;95679.98;1751816;82;21018;-67
2022/10/01 03:24:07;;;;;;;7.75;1.60;;;;;;;10.33;87.11;95674.80;1730410;82;21006;-67
2022/10/01 03:26:35;;;;;;;1.37;1.10;;;;;;;10.37;88.07;95672.09;1751211;82;21054;-68
2022/10/01 03:29:03;;;;;;;6.90;1.95;;;;;;;10.35;87.41;95675.20;1751099;82;21019;-67
2022/10/01 03:31:30;;;;;;;4.25;2.50;;;;;;;10.27;87.63;95664.33;1751289;82;21061;-68
2022/10/01 03:33:59;;;;;;;6.55;3.62;;;;;;;10.23;87.82;95663.94;1750768;82;20987;-67
2022/10/01 03:36:28;;;;;;;6.17;2.92;;;;;;;10.11;86.97;95667.67;1750851;82;21046;-68
2022/10/01 03:38:56;;;;;;;56.10;22.20;;;;;;;9.98;87.45;95670.94;1751256;82;21513;-68
2022/10/01 03:41:22;;;;;;;56.13;22.30;;;;;;;9.96;88.11;95673.59;1751128;82;21034;-68
2022/10/01 03:43:49;;;;;;;9.40;4.53;;;;;;;10.00;88.60;95676.17;1751164;82;20995;-68
2022/10/01 03:46:17;;;;;;;10.43;3.77;;;;;;;9.93;87.69;95678.05;1750775;82;21078;-68
2022/10/01 03:48:44;;;;;;;16.67;7.87;;;;;;;9.87;88.25;95675.03;1750901;82;21073;-68
2022/10/01 03:51:11;;;;;;;34.08;17.10;;;;;;;9.84;88.58;95673.77;1750619;82;21022;-68
2022/10/01 03:53:38;;;;;;;29.27;11.68;;;;;;;9.79;88.10;95674.73;1751350;82;21018;-67
2022/10/01 03:56:06;;;;;;;20.17;11.03;;;;;;;9.71;87.82;95688.02;1751119;82;21010;-68
2022/10/01 03:58:32;;;;;;;21.70;11.38;;;;;;;9.60;87.77;95677.63;1751043;82;20982;-67
2022/10/01 04:00:59;;;;;;;10.10;6.03;;;;;;;9.54;87.78;95684.28;1751127;82;21010;-67
2022/10/01 04:03:26;;;;;;;13.05;6.10;;;;;;;9.51;88.06;95688.27;1751237;82;21037;-67
2022/10/01 04:05:53;;;;;;;7.90;4.53;;;;;;;9.46;88.32;95683.06;1750927;82;20986;-67
2022/10/01 04:08:20;;;;;;;6.90;3.60;;;;;;;9.42;88.69;95697.59;1750991;82;21070;-68
2022/10/01 04:10:48;;;;;;;9.23;5.40;;;;;;;9.40;88.63;95684.47;1751120;82;21011;-68
2022/10/01 04:13:15;;;;;;;19.12;8.40;;;;;;;9.34;89.08;95682.34;1751172;82;21515;-68
2022/10/01 04:15:42;;;;;;;12.60;5.97;;;;;;;9.35;88.62;95684.08;1751069;82;20998;-68
2022/10/01 04:18:10;;;;;;;11.30;5.22;;;;;;;9.35;89.41;95684.08;1751064;82;21042;-68
2022/10/01 04:20:37;;;;;;;105.30;41.35;;;;;;;9.35;89.48;95682.34;1751154;82;20998;-68
2022/10/01 04:23:05;;;;;;;105.78;36.88;;;;;;;9.35;89.00;95687.61;1751117;82;21015;-68
2022/10/01 04:25:31;;;;;;;98.58;36.85;;;;;;;9.36;89.00;95697.23;1750909;82;20983;-68
2022/10/01 04:28:02;;;;;;;69.15;29.90;;;;;;;9.36;89.58;95690.66;1751006;82;21003;-68
2022/10/01 04:30:33;;;;;;;32.15;15.48;;;;;;;9.39;89.44;95693.23;1751145;82;21018;-68
2022/10/01 04:33:00;;;;;;;41.15;17.25;;;;;;;9.43;89.09;95687.51;1750975;82;21536;-67
2022/10/01 04:35:28;;;;;;;26.73;12.37;;;;;;;9.41;88.60;95705.09;1751037;82;21026;-67
2022/10/01 04:38:02;;;;;;;24.70;12.45;;;;;;;9.42;88.85;95692.33;1750769;82;20991;-67
2022/10/01 04:40:31;;;;;;;21.15;10.63;;;;;;;9.44;89.10;95705.04;1751061;82;21496;-67
2022/10/01 04:42:57;;;;;;;17.42;7.22;;;;;;;9.51;89.14;95701.45;1751071;82;20990;-67
2022/10/01 04:45:24;;;;;;;15.35;7.50;;;;;;;9.55;89.17;95696.58;1754166;81;21046;-67
2022/10/01 04:47:54;;;;;;;18.30;7.80;;;;;;;9.56;88.97;95699.63;1759040;81;21090;-68
2022/10/01 04:50:23;;;;;;;12.10;6.22;;;;;;;9.57;89.21;95697.40;1758908;81;21530;-67
2022/10/01 04:52:51;;;;;;;6.60;3.12;;;;;;;9.73;90.04;95711.27;1759043;81;20974;-68
2022/10/01 04:55:20;;;;;;;9.18;4.30;;;;;;;9.85;89.97;95702.30;1759040;81;21090;-68
2022/10/01 04:57:47;;;;;;;7.37;1.90;;;;;;;9.93;89.43;95707.91;1759008;81;21070;-68
2022/10/01 05:00:18;;;;;;;8.15;2.87;;;;;;;9.99;89.62;95709.57;1758608;81;21110;-68
2022/10/01 05:02:47;;;;;;;8.25;4.00;;;;;;;10.10;89.88;95701.04;1758680;81;21062;-68
2022/10/01 05:05:17;;;;;;;5.45;2.75;;;;;;;10.11;88.65;95712.48;1758802;81;21017;-68
2022/10/01 05:07:44;;;;;;;7.92;3.55;;;;;;;10.09;88.43;95712.50;1759035;81;21066;-68
2022/10/01 05:10:18;;;;;;;4.87;2.27;;;;;;;10.12;89.06;95708.48;1758779;81;20995;-67
2022/10/01 05:12:46;;;;;;;9.68;3.17;;;;;;;10.13;89.01;95718.16;1758844;81;21034;-67
2022/10/01 05:15:14;;;;;;;3.87;2.35;;;;;;;10.24;89.67;95705.26;1758739;82;21615;-67
2022/10/01 05:17:41;;;;;;;7.55;2.60;;;;;;;10.33;89.46;95716.99;1758762;82;21017;-68
2022/10/01 05:20:16;;;;;;;5.15;3.37;;;;;;;10.42;89.47;95718.63;1758799;81;21019;-67
2022/10/01 05:22:45;;;;;;;4.90;3.62;;;;;;;10.44;89.17;95704.52;1759042;81;20998;-67
2022/10/01 05:25:13;;;;;;;6.83;4.20;;;;;;;10.49;88.99;95715.88;1759012;81;20990;-68
2022/10/01 05:27:39;;;;;;;6.30;4.17;;;;;;;10.52;89.20;95699.98;1758992;81;21006;-68
2022/10/01 05:30:09;;;;;;;8.08;3.77;;;;;;;10.60;89.86;95713.05;1758795;81;21018;-67
2022/10/01 05:32:36;;;;;;;8.40;4.80;;;;;;;10.72;90.03;95700.97;1759228;81;21524;-68
2022/10/01 05:35:06;;;;;;;7.35;3.55;;;;;;;10.78;89.60;95698.66;1758911;81;21113;-68
2022/10/01 05:37:33;;;;;;;10.55;3.40;;;;;;;10.94;90.04;95697.95;1759188;81;20983;-68
2022/10/01 05:40:00;;;;;;;8.43;4.70;;;;;;;11.03;89.17;95699.09;1758966;81;20999;-68
2022/10/01 05:42:27;;;;;;;12.43;8.53;;;;;;;11.08;89.12;95688.44;1759180;81;21070;-68
2022/10/01 05:44:54;;;;;;;9.58;6.00;;;;;;;11.25;89.72;95693.81;1758374;81;21101;-68
2022/10/01 05:47:21;;;;;;;19.82;14.47;;;;;;;11.37;89.52;95695.81;1750989;82;21058;-67
2022/10/01 05:49:48;;;;;;;9.98;4.80;;;;;;;11.52;89.73;95682.74;1714712;84;21054;-67
2022/10/01 05:52:15;;;;;;;8.10;6.33;;;;;;;11.71;90.07;95689.36;1689704;85;20979;-67
2022/10/01 05:54:42;;;;;;;6.30;4.87;;;;;;;11.82;89.62;95683.41;1689658;85;21070;-67
2022/10/01 05:57:09;;;;;;;10.43;5.22;;;;;;;11.97;89.59;95682.66;1689727;85;21030;-67
2022/10/01 05:59:36;;;;;;;4.78;4.30;;;;;;;12.08;89.25;95680.66;1689934;85;21061;-67
2022/10/01 06:02:03;;;;;;;13.15;9.75;;;;;;;12.23;89.72;95671.48;1689743;85;21038;-67
2022/10/01 06:04:30;;;;;;;10.55;6.87;;;;;;;12.31;89.08;95669.52;1689620;85;21030;-67
2022/10/01 06:06:57;;;;;;;11.85;6.80;;;;;;;12.42;89.46;95667.93;1689750;85;21090;-67
2022/10/01 06:09:24;;;;;;;8.48;6.03;;;;;;;12.46;88.77;95669.61;1689758;85;21070;-67
2022/10/01 06:11:51;;;;;;;11.15;6.95;;;;;;;12.45;88.59;95675.36;1689448;85;21552;-67
2022/10/01 06:14:18;;;;;;;9.20;5.35;;;;;;;12.46;88.44;95672.25;1689740;85;21041;-67
2022/10/01 06:16:45;;;;;;;11.85;5.45;;;;;;;12.49;88.92;95669.06;1689396;85;21055;-68
2022/10/01 06:19:12;;;;;;;10.18;5.20;;;;;;;12.54;88.94;95664.52;1689565;85;21477;-68
2022/10/01 06:21:39;;;;;;;9.30;5.72;;;;;;;12.56;88.53;95665.82;1689681;85;21584;-68
2022/10/01 06:24:06;;;;;;;12.30;5.67;;;;;;;12.62;89.00;95657.70;1689444;85;21094;-68
2022/10/01 06:26:32;;;;;;;8.38;7.25;;;;;;;12.72;89.14;95659.67;1689734;85;20979;-68
2022/10/01 06:28:59;;;;;;;10.53;7.37;;;;;;;12.86;89.50;95665.48;1689455;85;21051;-67
2022/10/01 06:31:26;;;;;;;14.28;7.78;;;;;;;13.06;89.70;95657.47;1689535;85;21050;-68
2022/10/01 06:33:53;;;;;;;15.78;10.28;;;;;;;13.18;89.46;95655.34;1689686;85;21169;-67
2022/10/01 06:36:20;;;;;;;16.42;10.85;;;;;;;13.32;89.26;95658.95;1714823;84;21038;-67
2022/10/01 06:38:48;;;;;;;13.83;10.15;;;;;;;13.49;89.47;95653.64;1714712;84;21051;-67
2022/10/01 06:41:15;;;;;;;13.45;8.58;;;;;;;13.72;89.81;95650.31;1714678;83;20972;-67
2022/10/01 06:43:41;;;;;;;14.73;8.85;;;;;;;13.95;89.62;95649.14;1715026;83;21059;-67
2022/10/01 06:46:08;;;;;;;14.95;9.55;;;;;;;14.17;89.51;95647.16;1714631;84;21119;-67
2022/10/01 06:48:35;;;;;;;12.30;9.08;;;;;;;14.37;89.32;95649.17;1715081;84;21019;-67
2022/10/01 06:51:03;;;;;;;11.60;8.13;;;;;;;14.59;89.40;95634.73;1714607;84;21086;-68
2022/10/01 06:53:30;;;;;;;10.72;8.20;;;;;;;14.81;89.21;95633.56;1714640;84;21142;-67
2022/10/01 06:56:06;;;;;;;14.40;8.53;;;;;;;15.03;89.06;95631.03;1715077;84;21581;-68
2022/10/01 06:58:33;;;;;;;10.28;8.63;;;;;;;15.20;88.43;95637.08;1715031;83;21067;-68
2022/10/01 07:01:01;;;;;;;9.28;7.33;;;;;;;15.38;88.34;95628.89;1715044;84;21011;-68
2022/10/01 07:03:29;;;;;;;11.57;8.60;;;;;;;15.53;88.08;95626.52;1714743;84;21171;-68
2022/10/01 07:06:03;;;;;;;6.97;6.22;;;;;;;15.71;87.90;95641.41;1715084;84;21035;-68
2022/10/01 07:08:30;;;;;;;7.92;6.42;;;;;;;15.82;87.28;95641.00;1714647;84;21561;-67
2022/10/01 07:11:03;;;;;;;7.45;5.90;;;;;;;15.92;86.54;95641.91;1715231;84;21489;-67
2022/10/01 07:13:31;;;;;;;11.65;5.95;;;;;;;16.01;85.85;95640.70;1715176;84;21466;-67
2022/10/01 07:15:57;;;;;;;11.70;7.10;;;;;;;16.11;85.76;95634.08;1715424;84;21058;-67
2022/10/01 07:18:24;;;;;;;13.30;8.20;;;;;;;16.19;85.73;95640.44;1714903;84;21086;-67
2022/10/01 07:20:51;;;;;;;12.23;7.03;;;;;;;16.29;85.71;95638.27;1714951;84;21023;-67
2022/10/01 07:23:18;;;;;;;9.90;6.92;;;;;;;16.39;85.56;95639.63;1714883;84;21079;-67
2022/10/01 07:25:45;;;;;;;11.90;6.45;;;;;;;16.47;85.30;95640.65;1714870;84;21082;-67
2022/10/01 07:28:17;;;;;;;6.08;5.25;;;;;;;16.59;85.26;95630.83;1715081;84;21039;-67
2022/10/01 07:30:48;;;;;;;7.80;4.75;;;;;;;16.71;85.23;95638.78;1715262;84;21027;-68
2022/10/01 07:33:18;;;;;;;9.98;4.58;;;;;;;16.82;85.17;95641.41;1713878;83;21086;-68
2022/10/01 07:35:46;;;;;;;7.80;5.15;;;;;;;16.97;85.14;95637.22;1715093;84;21015;-68
2022/10/01 07:38:13;;;;;;;11.20;4.97;;;;;;;17.10;84.85;95640.22;1715533;84;21505;-68
2022/10/01 07:40:40;;;;;;;6.62;5.17;;;;;;;17.21;84.59;95640.64;1715206;83;21057;-68
2022/10/01 07:43:08;;;;;;;11.85;4.28;;;;;;;17.35;84.58;95637.82;1715170;84;21058;-68
2022/10/01 07:45:35;;;;;;;7.62;4.83;;;;;;;17.48;84.22;95636.33;1715476;83;21026;-68
2022/10/01 07:48:03;;;;;;;11.50;5.97;;;;;;;17.64;83.86;95624.04;1715030;84;21489;-67
2022/10/01 07:50:29;;;;;;;8.18;4.00;;;;;;;17.78;83.49;95624.72;1715060;84;20991;-67
2022/10/01 07:52:58;;;;;;;7.05;3.33;;;;;;;17.95;83.05;95623.98;1714836;83;21031;-67
2022/10/01 07:55:27;;;;;;;7.62;4.62;;;;;;;18.08;82.91;95622.45;1715056;84;21054;-68
2022/10/01 07:57:56;;;;;;;9.08;3.00;;;;;;;18.23;81.06;95624.86;1715135;84;21055;-67
2022/10/01 08:00:25;;;;;;;5.62;3.37;;;;;;;18.44;81.94;95619.41;1715184;83;21015;-67
2022/10/01 08:02:54;;;;;;;8.65;2.98;;;;;;;18.60;80.78;95618.58;1715089;84;21065;-68
2022/10/01 08:05:25;;;;;;;4.62;2.35;;;;;;;18.72;80.88;95615.77;1715042;84;21039;-67
2022/10/01 08:07:52;;;;;;;3.87;1.90;;;;;;;18.84;80.77;95626.81;1715242;84;21516;-67
2022/10/01 08:10:22;;;;;;;4.00;1.82;;;;;;;18.88;79.19;95623.05;1695038;84;21047;-67
2022/10/01 08:12:48;;;;;;;7.78;3.05;;;;;;;19.01;80.01;95616.13;1715096;84;21047;-67
2022/10/01 08:15:17;;;;;;;6.95;2.90;;;;;;;19.15;80.56;95611.37;1714979;84;21569;-68
2022/10/01 08:17:44;;;;;;;3.65;1.98;;;;;;;19.21;80.22;95603.05;1715002;84;21054;-68
2022/10/01 08:20:14;;;;;;;8.40;1.80;;;;;;;19.25;79.80;95601.92;1714846;84;21035;-68
2022/10/01 08:22:41;;;;;;;4.78;1.80;;;;;;;19.37;79.38;95595.93;1715086;84;21062;-67
2022/10/01 08:25:08;;;;;;;2.52;1.72;;;;;;;19.61;79.71;95591.56;1714782;83;21039;-68
2022/10/01 08:27:35;;;;;;;14.03;6.83;;;;;;;19.81;78.60;95593.19;1715188;83;21035;-68
2022/10/01 08:30:01;;;;;;;125.70;64.53;;;;;;;19.94;78.20;95585.34;1715175;84;21035;-68
2022/10/01 08:32:30;;;;;;;11.48;6.00;;;;;;;20.07;75.45;95583.22;1714906;83;21063;-67
2022/10/01 08:34:58;;;;;;;5.72;4.25;;;;;;;20.17;74.70;95587.59;1715031;84;21501;-67
2022/10/01 08:37:28;;;;;;;5.80;2.83;;;;;;;20.28;72.29;95578.45;1715040;84;21055;-67
2022/10/01 08:39:56;;;;;;;5.10;2.40;;;;;;;20.44;67.89;95577.59;1715386;84;21047;-67
2022/10/01 08:42:43;;;;;;;4.08;2.85;;;;;;;20.62;68.00;95583.73;1714823;84;21481;-68
2022/10/01 08:45:28;;;;;;;3.45;1.98;;;;;;;20.80;68.25;95572.40;1715102;84;21544;-68
2022/10/01 08:48:21;;;;;;;20.40;12.70;;;;;;;20.90;58.02;95570.41;1723718;83;21030;-68
2022/10/01 08:50:56;;;;;;;18.20;11.75;;;;;;;21.04;57.96;95572.73;1723436;83;21015;-68
2022/10/01 08:53:45;;;;;;;8.33;3.42;;;;;;;21.15;55.65;95566.26;1725199;83;21560;-68
2022/10/01 08:56:31;;;;;;;17.95;16.20;;;;;;;21.29;54.24;95564.95;1725345;83;21488;-68
2022/10/01 08:59:21;;;;;;;5.12;2.62;;;;;;;21.44;54.61;95567.66;1724788;83;21086;-68
2022/10/01 09:01:48;;;;;;;5.17;1.52;;;;;;;21.49;55.46;95568.23;1725288;83;20975;-68
2022/10/01 09:04:15;;;;;;;5.17;1.98;;;;;;;21.54;56.81;95564.30;1724807;83;21074;-68
2022/10/01 09:06:45;;;;;;;3.80;2.05;;;;;;;21.55;53.94;95562.50;1724930;83;21054;-67
2022/10/01 09:09:39;;;;;;;3.50;2.02;;;;;;;21.46;57.67;95555.86;1725714;83;21071;-68
2022/10/01 09:12:34;;;;;;;4.78;1.98;;;;;;;21.37;60.54;95551.91;1724780;83;21027;-67
2022/10/01 09:15:12;;;;;;;3.95;1.80;;;;;;;21.17;59.10;95550.45;1723741;83;21058;-67
2022/10/01 09:18:18;;;;;;;2.30;1.72;;;;;;;21.14;62.07;95553.78;1656972;83;21054;-68
2022/10/01 09:20:54;;;;;;;6.75;1.80;;;;;;;21.16;62.13;95544.68;1724986;83;21030;-67
2022/10/01 09:23:30;;;;;;;2.33;1.50;;;;;;;21.03;67.28;95541.03;1724866;83;21521;-68
2022/10/01 09:25:58;;;;;;;3.98;1.40;;;;;;;21.11;69.41;95544.09;1725095;83;21035;-68
2022/10/01 09:28:32;;;;;;;5.40;2.10;;;;;;;21.15;55.08;95542.11;1725036;83;21014;-68
2022/10/01 09:31:29;;;;;;;6.08;2.35;;;;;;;21.19;58.60;95536.92;1725150;83;21030;-68
2022/10/01 09:34:14;;;;;;;4.37;1.60;;;;;;;21.21;58.00;95537.70;1725114;83;21026;-68
2022/10/01 09:37:05;;;;;;;4.83;1.77;;;;;;;21.16;53.44;95535.77;1725171;83;21030;-68
2022/10/01 09:39:43;;;;;;;2.10;1.42;;;;;;;21.18;54.00;95545.94;1725165;83;21039;-68
2022/10/01 09:42:10;;;;;;;4.42;1.77;;;;;;;21.18;48.91;95544.59;1696268;83;21058;-67
2022/10/01 09:44:36;;;;;;;2.33;1.30;;;;;;;21.25;52.86;95538.39;1699172;84;21046;-68
2022/10/01 09:47:16;;;;;;;8.23;1.70;;;;;;;21.30;51.19;95538.97;1688426;84;21579;-67
2022/10/01 09:49:44;;;;;;;2.90;1.47;;;;;;;21.29;53.46;95535.42;1731527;82;21077;-67
2022/10/01 09:52:27;;;;;;;7.90;1.62;;;;;;;21.24;53.59;95536.16;1731024;83;21027;-67
2022/10/01 09:55:00;;;;;;;;;;;;;;;21.25;52.69;95541.07;1733801;82;21081;-68
2022/10/01 09:57:35;;;;;;;7.30;1.80;;;;;;;21.22;49.49;95539.89;1731443;83;20399;-67
2022/10/01 10:00:10;;;;;;;3.47;1.50;;;;;;;21.12;55.36;95536.94;1731766;82;21114;-68
2022/10/01 10:02:41;;;;;;;2.45;1.32;;;;;;;21.04;50.64;95532.05;1730818;82;21039;-67
2022/10/01 10:05:18;;;;;;;3.27;1.30;;;;;;;21.06;50.21;95534.61;1731544;82;21058;-67
2022/10/01 10:07:53;;;;;;;1.92;1.20;;;;;;;21.06;50.60;95535.47;1731233;82;21034;-67
2022/10/01 10:10:34;;;;;;;3.30;1.30;;;;;;;21.08;54.17;95536.73;1731585;83;21516;-67
2022/10/01 10:13:20;;;;;;;4.08;1.52;;;;;;;21.16;51.18;95527.23;1731517;83;21042;-67
2022/10/01 10:15:58;;;;;;;3.50;1.52;;;;;;;21.26;54.33;95528.02;1731489;83;21044;-68
2022/10/01 10:18:35;;;;;;;5.25;1.67;;;;;;;21.25;57.78;95531.20;1731549;82;20975;-68
2022/10/01 10:21:15;;;;;;;2.70;1.50;;;;;;;21.29;58.52;95530.06;1731452;83;20980;-67
2022/10/01 10:23:52;;;;;;;2.67;1.47;;;;;;;21.32;53.39;95529.86;1731479;82;21023;-67
2022/10/01 10:26:37;;;;;;;6.42;1.57;;;;;;;21.35;48.93;95524.30;1731775;82;21034;-67
2022/10/01 10:29:08;;;;;;;2.87;1.42;;;;;;;21.45;54.40;95525.11;1731290;83;21054;-67
2022/10/01 10:31:44;;;;;;;2.50;1.90;;;;;;;21.44;49.43;95520.68;1731437;82;21017;-67
2022/10/01 10:34:15;;;;;;;4.03;1.65;;;;;;;21.49;54.38;95514.54;1731648;83;21038;-67
2022/10/01 10:36:45;;;;;;;3.55;1.65;;;;;;;21.38;57.40;95514.73;1731631;82;21023;-67
2022/10/01 10:39:28;;;;;;;2.75;1.47;;;;;;;21.28;57.48;95510.88;1731739;83;20999;-67
2022/10/01 10:41:56;;;;;;;4.40;1.80;;;;;;;21.23;55.50;95507.61;1731881;82;21122;-67
2022/10/01 10:44:30;;;;;;;2.15;1.45;;;;;;;21.49;53.06;95506.00;1731529;83;21011;-67
2022/10/01 10:47:00;;;;;;;3.10;1.32;;;;;;;22.07;46.46;95487.10;1741628;81;21074;-67
2022/10/01 10:49:31;;;;;;;2.40;1.40;;;;;;;22.71;48.50;95480.14;1759127;81;21515;-67
2022/10/01 10:52:00;;;;;;;3.15;1.20;;;;;;;23.35;46.20;95476.15;1758983;81;20966;-68
2022/10/01 10:54:36;;;;;;;2.05;1.10;;;;;;;23.59;41.30;95475.39;1729616;81;21026;-67
2022/10/01 10:57:29;;;;;;;1.42;1.10;;;;;;;23.86;41.19;95471.19;1759280;81;21517;-68
2022/10/01 11:00:19;;;;;;;4.12;1.30;;;;;;;24.14;42.19;95460.10;1758461;81;21330;-68
2022/10/01 11:03:03;;;;;;;2.92;1.50;;;;;;;24.37;43.13;95465.11;1759499;81;21033;-67
2022/10/01 11:05:35;;;;;;;6.28;1.87;;;;;;;24.76;39.50;95454.12;1758741;82;21034;-67
2022/10/01 11:08:09;;;;;;;4.55;1.67;;;;;;;24.85;38.33;95454.77;1758874;81;20991;-67
2022/10/01 11:10:53;;;;;;;3.42;1.67;;;;;;;25.18;39.52;95441.00;1759033;81;21499;-67
2022/10/01 11:13:51;;;;;;;3.27;1.12;;;;;;;25.35;38.39;95426.13;1757438;81;21054;-67
2022/10/01 11:16:33;;;;;;;3.50;1.27;;;;;;;25.24;37.59;95427.84;1759164;81;20987;-67
2022/10/01 11:19:17;;;;;;;4.90;1.55;;;;;;;25.43;37.89;95423.70;1758939;81;21030;-67
2022/10/01 11:22:03;;;;;;;2.33;1.25;;;;;;;25.51;36.84;95418.53;1755395;81;21675;-67
2022/10/01 11:24:36;;;;;;;4.05;1.65;;;;;;;25.53;36.34;95409.82;1750872;82;21089;-67
2022/10/01 11:27:11;;;;;;;4.45;2.30;;;;;;;25.69;34.79;95414.83;1758859;81;21018;-68
2022/10/01 11:30:03;;;;;;;4.95;1.98;;;;;;;26.05;36.74;95400.14;1759108;81;21065;-68
2022/10/01 11:32:53;;;;;;;5.45;1.85;;;;;;;26.53;37.48;95395.70;1759290;81;20975;-68
2022/10/01 11:35:57;;;;;;;1.72;1.22;;;;;;;27.14;36.23;95388.17;1759484;81;21034;-68
2022/10/01 11:38:55;;;;;;;2.98;1.20;;;;;;;27.52;33.69;95379.88;1759384;81;20978;-68
2022/10/01 11:41:35;;;;;;;2.22;1.02;;;;;;;27.97;38.07;95375.40;1758753;81;21034;-68
2022/10/01 11:44:24;;;;;;;3.17;1.05;;;;;;;28.36;35.62;95374.06;1759245;81;20998;-67
2022/10/01 11:47:04;;;;;;;1.62;1.10;;;;;;;28.32;33.77;95368.55;1759127;81;21046;-68
2022/10/01 11:50:09;;;;;;;5.17;1.47;;;;;;;28.48;34.52;95363.95;1759386;81;21086;-67
2022/10/01 11:52:51;;;;;;;4.92;1.10;;;;;;;28.44;33.31;95364.73;1759015;81;20998;-67
2022/10/01 11:58:59;;;;;;;1.82;1.00;;;;;;;28.12;34.45;95370.39;1758865;81;21102;-67
2022/10/01 12:01:43;;;;;;;1.87;1.10;;;;;;;27.87;33.92;95363.68;1759013;81;21013;-67
2022/10/01 12:04:37;;;;;;;2.62;1.15;;;;;;;28.30;33.05;95366.50;1759283;81;21071;-68